sensor_id;sensor_type;location;lat;lon;timestamp;P1;durP1;ratioP1;P2;durP2;ratioP2
22270;SDS011;11304;53.520;10.104;2023-04-15T00:01:59;6.15;;;5.07;;
22270;SDS011;11304;53.520;10.104;2023-04-15T00:04:25;6.65;;;5.55;;
22270;SDS011;11304;53.520;10.104;2023-04-15T00:06:52;11.07;;;6.22;;
22270;SDS011;11304;53.520;10.104;2023-04-15T00:09:19;8.30;;;5.78;;
22270;SDS011;11304;53.520;10.104;2023-04-15T00:11:45;8.38;;;5.65;;
22270;SDS011;11304;53.520;10.104;2023-04-15T00:14:11;6.30;;;5.22;;
22270;SDS011;11304;53.520;10.104;2023-04-15T00:16:38;8.65;;;6.50;;
22270;SDS011;11304;53.520;10.104;2023-04-15T00:19:04;6.60;;;5.63;;
22270;SDS011;11304;53.520;10.104;2023-04-15T00:21:30;7.38;;;5.97;;
22270;SDS011;11304;53.520;10.104;2023-04-15T00:23:56;10.07;;;5.93;;
22270;SDS011;11304;53.520;10.104;2023-04-15T00:26:22;9.30;;;5.85;;
22270;SDS011;11304;53.520;10.104;2023-04-15T00:28:48;7.40;;;6.40;;
22270;SDS011;11304;53.520;10.104;2023-04-15T00:31:14;6.00;;;5.30;;
22270;SDS011;11304;53.520;10.104;2023-04-15T00:33:41;7.95;;;5.80;;
22270;SDS011;11304;53.520;10.104;2023-04-15T00:36:07;8.32;;;5.93;;
22270;SDS011;11304;53.520;10.104;2023-04-15T00:38:33;7.80;;;6.28;;
22270;SDS011;11304;53.520;10.104;2023-04-15T00:41:00;8.75;;;6.65;;
22270;SDS011;11304;53.520;10.104;2023-04-15T00:43:27;8.13;;;6.50;;
22270;SDS011;11304;53.520;10.104;2023-04-15T00:45:53;9.07;;;6.00;;
22270;SDS011;11304;53.520;10.104;2023-04-15T00:48:21;8.75;;;6.13;;
22270;SDS011;11304;53.520;10.104;2023-04-15T00:50:47;8.50;;;6.13;;
22270;SDS011;11304;53.520;10.104;2023-04-15T00:53:14;7.75;;;6.68;;
22270;SDS011;11304;53.520;10.104;2023-04-15T00:55:40;8.75;;;6.70;;
22270;SDS011;11304;53.520;10.104;2023-04-15T00:58:06;9.45;;;6.70;;
22270;SDS011;11304;53.520;10.104;2023-04-15T01:00:32;7.57;;;6.40;;
22270;SDS011;11304;53.520;10.104;2023-04-15T01:02:58;9.68;;;6.93;;
22270;SDS011;11304;53.520;10.104;2023-04-15T01:05:24;8.85;;;6.68;;
22270;SDS011;11304;53.520;10.104;2023-04-15T01:07:51;7.63;;;6.80;;
22270;SDS011;11304;53.520;10.104;2023-04-15T01:10:17;9.43;;;7.78;;
22270;SDS011;11304;53.520;10.104;2023-04-15T01:12:43;8.13;;;7.32;;
22270;SDS011;11304;53.520;10.104;2023-04-15T01:15:09;8.90;;;7.70;;
22270;SDS011;11304;53.520;10.104;2023-04-15T01:17:36;8.95;;;7.30;;
22270;SDS011;11304;53.520;10.104;2023-04-15T01:20:02;11.38;;;8.63;;
22270;SDS011;11304;53.520;10.104;2023-04-15T01:22:29;10.45;;;8.48;;
22270;SDS011;11304;53.520;10.104;2023-04-15T01:25:05;11.02;;;8.95;;
22270;SDS011;11304;53.520;10.104;2023-04-15T01:27:32;10.70;;;8.32;;
22270;SDS011;11304;53.520;10.104;2023-04-15T01:29:59;10.02;;;8.63;;
22270;SDS011;11304;53.520;10.104;2023-04-15T01:32:26;11.23;;;8.73;;
22270;SDS011;11304;53.520;10.104;2023-04-15T01:34:52;13.88;;;8.88;;
22270;SDS011;11304;53.520;10.104;2023-04-15T01:37:18;11.52;;;9.02;;
22270;SDS011;11304;53.520;10.104;2023-04-15T01:39:45;11.25;;;9.48;;
22270;SDS011;11304;53.520;10.104;2023-04-15T01:42:11;9.40;;;8.35;;
22270;SDS011;11304;53.520;10.104;2023-04-15T01:44:37;10.57;;;8.07;;
22270;SDS011;11304;53.520;10.104;2023-04-15T01:47:03;10.10;;;9.00;;
22270;SDS011;11304;53.520;10.104;2023-04-15T01:49:29;9.85;;;8.73;;
22270;SDS011;11304;53.520;10.104;2023-04-15T01:51:56;10.65;;;8.90;;
22270;SDS011;11304;53.520;10.104;2023-04-15T01:54:22;11.30;;;9.15;;
22270;SDS011;11304;53.520;10.104;2023-04-15T01:56:48;9.57;;;8.30;;
22270;SDS011;11304;53.520;10.104;2023-04-15T01:59:14;10.82;;;9.48;;
22270;SDS011;11304;53.520;10.104;2023-04-15T02:01:40;10.27;;;9.00;;
22270;SDS011;11304;53.520;10.104;2023-04-15T02:04:06;12.02;;;9.73;;
22270;SDS011;11304;53.520;10.104;2023-04-15T02:06:33;10.45;;;9.07;;
22270;SDS011;11304;53.520;10.104;2023-04-15T02:09:00;11.45;;;9.48;;
22270;SDS011;11304;53.520;10.104;2023-04-15T02:11:26;11.60;;;9.43;;
22270;SDS011;11304;53.520;10.104;2023-04-15T02:13:52;11.50;;;9.73;;
22270;SDS011;11304;53.520;10.104;2023-04-15T02:16:19;13.35;;;10.35;;
22270;SDS011;11304;53.520;10.104;2023-04-15T02:18:45;13.68;;;9.80;;
22270;SDS011;11304;53.520;10.104;2023-04-15T02:21:12;12.55;;;10.07;;
22270;SDS011;11304;53.520;10.104;2023-04-15T02:23:38;12.05;;;10.23;;
22270;SDS011;11304;53.520;10.104;2023-04-15T02:26:04;12.98;;;10.73;;
22270;SDS011;11304;53.520;10.104;2023-04-15T02:28:30;13.88;;;10.95;;
22270;SDS011;11304;53.520;10.104;2023-04-15T02:30:56;15.35;;;11.07;;
22270;SDS011;11304;53.520;10.104;2023-04-15T02:33:23;15.00;;;11.55;;
22270;SDS011;11304;53.520;10.104;2023-04-15T02:35:49;14.75;;;11.43;;
22270;SDS011;11304;53.520;10.104;2023-04-15T02:38:17;15.35;;;11.88;;
22270;SDS011;11304;53.520;10.104;2023-04-15T02:40:43;18.48;;;11.70;;
22270;SDS011;11304;53.520;10.104;2023-04-15T02:43:09;15.98;;;12.48;;
22270;SDS011;11304;53.520;10.104;2023-04-15T02:45:35;19.40;;;13.35;;
22270;SDS011;11304;53.520;10.104;2023-04-15T02:48:01;19.98;;;14.25;;
22270;SDS011;11304;53.520;10.104;2023-04-15T02:50:30;21.02;;;14.73;;
22270;SDS011;11304;53.520;10.104;2023-04-15T02:52:56;17.70;;;13.25;;
22270;SDS011;11304;53.520;10.104;2023-04-15T02:55:22;20.10;;;13.45;;
22270;SDS011;11304;53.520;10.104;2023-04-15T02:57:48;20.27;;;14.35;;
22270;SDS011;11304;53.520;10.104;2023-04-15T03:00:15;18.65;;;14.23;;
22270;SDS011;11304;53.520;10.104;2023-04-15T03:02:41;19.98;;;14.32;;
22270;SDS011;11304;53.520;10.104;2023-04-15T03:05:11;20.05;;;14.25;;
22270;SDS011;11304;53.520;10.104;2023-04-15T03:07:37;21.20;;;14.90;;
22270;SDS011;11304;53.520;10.104;2023-04-15T03:10:04;20.63;;;14.75;;
22270;SDS011;11304;53.520;10.104;2023-04-15T03:12:30;26.80;;;16.80;;
22270;SDS011;11304;53.520;10.104;2023-04-15T03:14:56;22.02;;;15.90;;
22270;SDS011;11304;53.520;10.104;2023-04-15T03:17:22;24.75;;;15.43;;
22270;SDS011;11304;53.520;10.104;2023-04-15T03:19:48;23.60;;;17.42;;
22270;SDS011;11304;53.520;10.104;2023-04-15T03:22:15;24.15;;;16.33;;
22270;SDS011;11304;53.520;10.104;2023-04-15T03:24:41;23.58;;;16.50;;
22270;SDS011;11304;53.520;10.104;2023-04-15T03:27:07;25.35;;;16.63;;
22270;SDS011;11304;53.520;10.104;2023-04-15T03:29:33;24.55;;;16.73;;
22270;SDS011;11304;53.520;10.104;2023-04-15T03:31:59;24.92;;;16.88;;
22270;SDS011;11304;53.520;10.104;2023-04-15T03:34:25;26.75;;;17.98;;
22270;SDS011;11304;53.520;10.104;2023-04-15T03:36:51;28.25;;;17.73;;
22270;SDS011;11304;53.520;10.104;2023-04-15T03:39:17;29.70;;;18.67;;
22270;SDS011;11304;53.520;10.104;2023-04-15T03:41:44;29.50;;;19.33;;
22270;SDS011;11304;53.520;10.104;2023-04-15T03:44:10;28.92;;;18.88;;
22270;SDS011;11304;53.520;10.104;2023-04-15T03:46:36;29.02;;;18.60;;
22270;SDS011;11304;53.520;10.104;2023-04-15T03:49:03;30.17;;;18.83;;
22270;SDS011;11304;53.520;10.104;2023-04-15T03:51:30;27.90;;;18.88;;
22270;SDS011;11304;53.520;10.104;2023-04-15T03:53:56;29.50;;;19.20;;
22270;SDS011;11304;53.520;10.104;2023-04-15T03:56:23;30.27;;;18.58;;
22270;SDS011;11304;53.520;10.104;2023-04-15T03:58:49;28.45;;;19.13;;
22270;SDS011;11304;53.520;10.104;2023-04-15T04:01:15;29.13;;;18.75;;
22270;SDS011;11304;53.520;10.104;2023-04-15T04:03:41;29.08;;;18.27;;
22270;SDS011;11304;53.520;10.104;2023-04-15T04:06:07;28.10;;;18.33;;
22270;SDS011;11304;53.520;10.104;2023-04-15T04:08:36;25.17;;;17.23;;
22270;SDS011;11304;53.520;10.104;2023-04-15T04:11:02;28.48;;;18.33;;
22270;SDS011;11304;53.520;10.104;2023-04-15T04:13:29;27.25;;;17.23;;
22270;SDS011;11304;53.520;10.104;2023-04-15T04:15:55;25.63;;;17.30;;
22270;SDS011;11304;53.520;10.104;2023-04-15T04:18:21;25.40;;;16.67;;
22270;SDS011;11304;53.520;10.104;2023-04-15T04:20:47;28.23;;;17.73;;
22270;SDS011;11304;53.520;10.104;2023-04-15T04:23:13;28.40;;;17.98;;
22270;SDS011;11304;53.520;10.104;2023-04-15T04:25:39;29.45;;;19.52;;
22270;SDS011;11304;53.520;10.104;2023-04-15T04:28:05;30.15;;;19.80;;
22270;SDS011;11304;53.520;10.104;2023-04-15T04:30:31;30.90;;;19.83;;
22270;SDS011;11304;53.520;10.104;2023-04-15T04:32:58;30.83;;;20.35;;
22270;SDS011;11304;53.520;10.104;2023-04-15T04:35:24;32.85;;;21.52;;
22270;SDS011;11304;53.520;10.104;2023-04-15T04:37:50;32.97;;;21.50;;
22270;SDS011;11304;53.520;10.104;2023-04-15T04:40:16;36.28;;;22.95;;
22270;SDS011;11304;53.520;10.104;2023-04-15T04:42:42;35.55;;;22.38;;
22270;SDS011;11304;53.520;10.104;2023-04-15T04:45:08;37.38;;;24.25;;
22270;SDS011;11304;53.520;10.104;2023-04-15T04:47:34;37.97;;;23.73;;
22270;SDS011;11304;53.520;10.104;2023-04-15T04:50:00;46.92;;;25.95;;
22270;SDS011;11304;53.520;10.104;2023-04-15T04:52:27;41.92;;;25.75;;
22270;SDS011;11304;53.520;10.104;2023-04-15T04:54:53;46.72;;;27.98;;
22270;SDS011;11304;53.520;10.104;2023-04-15T04:57:19;46.83;;;28.20;;
22270;SDS011;11304;53.520;10.104;2023-04-15T04:59:45;46.60;;;28.98;;
22270;SDS011;11304;53.520;10.104;2023-04-15T05:02:11;51.35;;;30.23;;
22270;SDS011;11304;53.520;10.104;2023-04-15T05:04:37;51.70;;;30.98;;
22270;SDS011;11304;53.520;10.104;2023-04-15T05:07:04;49.22;;;30.17;;
22270;SDS011;11304;53.520;10.104;2023-04-15T05:09:30;51.53;;;29.95;;
22270;SDS011;11304;53.520;10.104;2023-04-15T05:11:57;51.85;;;30.70;;
22270;SDS011;11304;53.520;10.104;2023-04-15T05:14:23;56.40;;;32.05;;
22270;SDS011;11304;53.520;10.104;2023-04-15T05:16:49;50.45;;;30.40;;
22270;SDS011;11304;53.520;10.104;2023-04-15T05:19:15;55.22;;;32.47;;
22270;SDS011;11304;53.520;10.104;2023-04-15T05:21:41;55.40;;;34.20;;
22270;SDS011;11304;53.520;10.104;2023-04-15T05:24:07;58.90;;;33.97;;
22270;SDS011;11304;53.520;10.104;2023-04-15T05:26:33;59.67;;;34.60;;
22270;SDS011;11304;53.520;10.104;2023-04-15T05:29:00;56.03;;;34.50;;
22270;SDS011;11304;53.520;10.104;2023-04-15T05:31:26;56.67;;;35.15;;
22270;SDS011;11304;53.520;10.104;2023-04-15T05:33:52;57.47;;;36.03;;
22270;SDS011;11304;53.520;10.104;2023-04-15T05:36:18;53.05;;;33.50;;
22270;SDS011;11304;53.520;10.104;2023-04-15T05:38:45;54.15;;;34.25;;
22270;SDS011;11304;53.520;10.104;2023-04-15T05:41:11;58.38;;;36.78;;
22270;SDS011;11304;53.520;10.104;2023-04-15T05:43:39;58.30;;;35.15;;
22270;SDS011;11304;53.520;10.104;2023-04-15T05:46:05;54.78;;;34.70;;
22270;SDS011;11304;53.520;10.104;2023-04-15T05:48:32;53.55;;;33.45;;
22270;SDS011;11304;53.520;10.104;2023-04-15T05:50:59;56.08;;;34.85;;
22270;SDS011;11304;53.520;10.104;2023-04-15T05:53:25;55.85;;;35.75;;
22270;SDS011;11304;53.520;10.104;2023-04-15T05:55:51;57.92;;;36.40;;
22270;SDS011;11304;53.520;10.104;2023-04-15T05:58:17;54.13;;;34.13;;
22270;SDS011;11304;53.520;10.104;2023-04-15T06:00:43;56.05;;;36.65;;
22270;SDS011;11304;53.520;10.104;2023-04-15T06:03:10;57.83;;;37.03;;
22270;SDS011;11304;53.520;10.104;2023-04-15T06:05:36;56.97;;;34.75;;
22270;SDS011;11304;53.520;10.104;2023-04-15T06:08:02;56.38;;;36.70;;
22270;SDS011;11304;53.520;10.104;2023-04-15T06:10:28;64.07;;;36.70;;
22270;SDS011;11304;53.520;10.104;2023-04-15T06:12:55;62.22;;;37.65;;
22270;SDS011;11304;53.520;10.104;2023-04-15T06:15:21;58.83;;;36.55;;
22270;SDS011;11304;53.520;10.104;2023-04-15T06:17:47;65.70;;;38.08;;
22270;SDS011;11304;53.520;10.104;2023-04-15T06:20:13;65.68;;;39.50;;
22270;SDS011;11304;53.520;10.104;2023-04-15T06:22:40;62.13;;;38.25;;
22270;SDS011;11304;53.520;10.104;2023-04-15T06:25:06;68.60;;;39.40;;
22270;SDS011;11304;53.520;10.104;2023-04-15T06:27:33;68.13;;;40.63;;
22270;SDS011;11304;53.520;10.104;2023-04-15T06:29:59;61.63;;;38.40;;
22270;SDS011;11304;53.520;10.104;2023-04-15T06:32:25;66.60;;;39.58;;
22270;SDS011;11304;53.520;10.104;2023-04-15T06:34:51;60.97;;;37.40;;
22270;SDS011;11304;53.520;10.104;2023-04-15T06:37:17;61.83;;;38.88;;
22270;SDS011;11304;53.520;10.104;2023-04-15T06:39:43;64.07;;;39.13;;
22270;SDS011;11304;53.520;10.104;2023-04-15T06:42:09;64.00;;;39.28;;
22270;SDS011;11304;53.520;10.104;2023-04-15T06:44:36;57.58;;;36.97;;
22270;SDS011;11304;53.520;10.104;2023-04-15T06:47:02;62.72;;;39.63;;
22270;SDS011;11304;53.520;10.104;2023-04-15T06:49:28;63.17;;;39.20;;
22270;SDS011;11304;53.520;10.104;2023-04-15T06:51:54;70.13;;;40.95;;
22270;SDS011;11304;53.520;10.104;2023-04-15T06:54:21;64.30;;;39.83;;
22270;SDS011;11304;53.520;10.104;2023-04-15T06:56:47;65.57;;;40.13;;
22270;SDS011;11304;53.520;10.104;2023-04-15T06:59:13;59.75;;;39.15;;
22270;SDS011;11304;53.520;10.104;2023-04-15T07:01:40;59.70;;;39.42;;
22270;SDS011;11304;53.520;10.104;2023-04-15T07:04:06;62.92;;;39.25;;
22270;SDS011;11304;53.520;10.104;2023-04-15T07:06:32;59.92;;;37.45;;
22270;SDS011;11304;53.520;10.104;2023-04-15T07:08:59;62.20;;;38.70;;
22270;SDS011;11304;53.520;10.104;2023-04-15T07:11:25;60.13;;;40.30;;
22270;SDS011;11304;53.520;10.104;2023-04-15T07:13:51;64.07;;;38.67;;
22270;SDS011;11304;53.520;10.104;2023-04-15T07:16:18;61.35;;;39.38;;
22270;SDS011;11304;53.520;10.104;2023-04-15T07:18:44;61.15;;;38.50;;
22270;SDS011;11304;53.520;10.104;2023-04-15T07:21:10;59.85;;;39.45;;
22270;SDS011;11304;53.520;10.104;2023-04-15T07:23:36;60.40;;;39.67;;
22270;SDS011;11304;53.520;10.104;2023-04-15T07:26:02;59.28;;;39.65;;
22270;SDS011;11304;53.520;10.104;2023-04-15T07:28:28;59.78;;;39.85;;
22270;SDS011;11304;53.520;10.104;2023-04-15T07:30:55;61.40;;;40.25;;
22270;SDS011;11304;53.520;10.104;2023-04-15T07:33:24;58.55;;;39.03;;
22270;SDS011;11304;53.520;10.104;2023-04-15T07:35:50;57.88;;;38.00;;
22270;SDS011;11304;53.520;10.104;2023-04-15T07:38:17;58.65;;;39.50;;
22270;SDS011;11304;53.520;10.104;2023-04-15T07:40:43;62.35;;;39.63;;
22270;SDS011;11304;53.520;10.104;2023-04-15T07:43:09;60.10;;;39.40;;
22270;SDS011;11304;53.520;10.104;2023-04-15T07:45:35;61.60;;;40.58;;
22270;SDS011;11304;53.520;10.104;2023-04-15T07:48:01;61.55;;;39.53;;
22270;SDS011;11304;53.520;10.104;2023-04-15T07:50:27;64.53;;;41.33;;
22270;SDS011;11304;53.520;10.104;2023-04-15T07:52:53;62.90;;;41.05;;
22270;SDS011;11304;53.520;10.104;2023-04-15T07:55:20;65.65;;;42.03;;
22270;SDS011;11304;53.520;10.104;2023-04-15T07:57:47;66.45;;;43.67;;
22270;SDS011;11304;53.520;10.104;2023-04-15T08:00:13;65.65;;;42.70;;
22270;SDS011;11304;53.520;10.104;2023-04-15T08:02:40;71.53;;;45.20;;
22270;SDS011;11304;53.520;10.104;2023-04-15T08:05:07;68.40;;;44.47;;
22270;SDS011;11304;53.520;10.104;2023-04-15T08:07:34;68.38;;;43.40;;
22270;SDS011;11304;53.520;10.104;2023-04-15T08:10:00;67.68;;;43.70;;
22270;SDS011;11304;53.520;10.104;2023-04-15T08:12:26;72.22;;;45.58;;
22270;SDS011;11304;53.520;10.104;2023-04-15T08:14:53;69.88;;;43.97;;
22270;SDS011;11304;53.520;10.104;2023-04-15T08:17:20;66.00;;;42.45;;
22270;SDS011;11304;53.520;10.104;2023-04-15T08:19:46;64.18;;;40.90;;
22270;SDS011;11304;53.520;10.104;2023-04-15T08:22:12;67.55;;;42.95;;
22270;SDS011;11304;53.520;10.104;2023-04-15T08:24:39;60.28;;;41.55;;
22270;SDS011;11304;53.520;10.104;2023-04-15T08:27:05;60.10;;;40.55;;
22270;SDS011;11304;53.520;10.104;2023-04-15T08:29:32;57.33;;;40.05;;
22270;SDS011;11304;53.520;10.104;2023-04-15T08:31:58;62.63;;;41.08;;
22270;SDS011;11304;53.520;10.104;2023-04-15T08:34:25;60.25;;;41.20;;
22270;SDS011;11304;53.520;10.104;2023-04-15T08:36:52;63.92;;;41.55;;
22270;SDS011;11304;53.520;10.104;2023-04-15T08:39:18;60.90;;;40.88;;
22270;SDS011;11304;53.520;10.104;2023-04-15T08:41:45;58.80;;;39.90;;
22270;SDS011;11304;53.520;10.104;2023-04-15T08:44:12;58.22;;;38.15;;
22270;SDS011;11304;53.520;10.104;2023-04-15T08:46:38;57.15;;;39.15;;
22270;SDS011;11304;53.520;10.104;2023-04-15T08:49:07;56.50;;;39.67;;
22270;SDS011;11304;53.520;10.104;2023-04-15T08:51:34;59.60;;;38.80;;
22270;SDS011;11304;53.520;10.104;2023-04-15T08:54:01;59.50;;;39.30;;
22270;SDS011;11304;53.520;10.104;2023-04-15T08:56:29;57.42;;;38.08;;
22270;SDS011;11304;53.520;10.104;2023-04-15T08:58:58;55.60;;;38.92;;
22270;SDS011;11304;53.520;10.104;2023-04-15T09:01:25;54.72;;;38.55;;
22270;SDS011;11304;53.520;10.104;2023-04-15T09:03:51;55.15;;;37.80;;
22270;SDS011;11304;53.520;10.104;2023-04-15T09:06:21;58.42;;;38.88;;
22270;SDS011;11304;53.520;10.104;2023-04-15T09:08:48;57.65;;;38.67;;
22270;SDS011;11304;53.520;10.104;2023-04-15T09:11:14;58.33;;;39.50;;
22270;SDS011;11304;53.520;10.104;2023-04-15T09:13:42;56.30;;;39.13;;
22270;SDS011;11304;53.520;10.104;2023-04-15T09:16:08;56.35;;;40.10;;
22270;SDS011;11304;53.520;10.104;2023-04-15T09:18:34;57.83;;;40.13;;
22270;SDS011;11304;53.520;10.104;2023-04-15T09:21:10;56.15;;;39.58;;
22270;SDS011;11304;53.520;10.104;2023-04-15T09:23:38;55.03;;;36.67;;
22270;SDS011;11304;53.520;10.104;2023-04-15T09:26:04;58.30;;;40.03;;
22270;SDS011;11304;53.520;10.104;2023-04-15T09:28:31;59.65;;;38.97;;
22270;SDS011;11304;53.520;10.104;2023-04-15T09:30:58;61.13;;;39.35;;
22270;SDS011;11304;53.520;10.104;2023-04-15T09:33:25;58.97;;;38.78;;
22270;SDS011;11304;53.520;10.104;2023-04-15T09:35:55;51.85;;;37.45;;
22270;SDS011;11304;53.520;10.104;2023-04-15T09:38:22;50.65;;;36.22;;
22270;SDS011;11304;53.520;10.104;2023-04-15T09:40:48;55.80;;;36.13;;
22270;SDS011;11304;53.520;10.104;2023-04-15T09:43:14;45.95;;;33.70;;
22270;SDS011;11304;53.520;10.104;2023-04-15T09:45:48;48.08;;;33.92;;
22270;SDS011;11304;53.520;10.104;2023-04-15T09:48:24;43.95;;;31.63;;
22270;SDS011;11304;53.520;10.104;2023-04-15T09:50:52;44.78;;;32.30;;
22270;SDS011;11304;53.520;10.104;2023-04-15T09:53:19;43.00;;;30.52;;
22270;SDS011;11304;53.520;10.104;2023-04-15T09:55:48;38.50;;;28.55;;
22270;SDS011;11304;53.520;10.104;2023-04-15T09:58:19;41.60;;;29.15;;
22270;SDS011;11304;53.520;10.104;2023-04-15T10:00:48;38.55;;;28.92;;
22270;SDS011;11304;53.520;10.104;2023-04-15T10:03:18;47.78;;;29.17;;
22270;SDS011;11304;53.520;10.104;2023-04-15T10:05:46;36.55;;;29.10;;
22270;SDS011;11304;53.520;10.104;2023-04-15T10:08:13;40.97;;;29.45;;
22270;SDS011;11304;53.520;10.104;2023-04-15T10:10:40;34.80;;;26.70;;
22270;SDS011;11304;53.520;10.104;2023-04-15T10:13:06;44.78;;;29.30;;
22270;SDS011;11304;53.520;10.104;2023-04-15T10:15:32;40.80;;;30.02;;
22270;SDS011;11304;53.520;10.104;2023-04-15T10:17:59;38.50;;;28.88;;
22270;SDS011;11304;53.520;10.104;2023-04-15T10:20:25;43.50;;;30.10;;
22270;SDS011;11304;53.520;10.104;2023-04-15T10:22:51;36.50;;;28.75;;
22270;SDS011;11304;53.520;10.104;2023-04-15T10:25:18;29.77;;;22.55;;
22270;SDS011;11304;53.520;10.104;2023-04-15T10:27:44;28.65;;;22.52;;
22270;SDS011;11304;53.520;10.104;2023-04-15T10:30:12;29.20;;;20.77;;
22270;SDS011;11304;53.520;10.104;2023-04-15T10:32:39;27.77;;;20.58;;
22270;SDS011;11304;53.520;10.104;2023-04-15T10:35:05;28.27;;;21.45;;
22270;SDS011;11304;53.520;10.104;2023-04-15T10:37:34;27.70;;;19.23;;
22270;SDS011;11304;53.520;10.104;2023-04-15T10:40:01;23.58;;;18.63;;
22270;SDS011;11304;53.520;10.104;2023-04-15T10:42:46;26.33;;;19.38;;
22270;SDS011;11304;53.520;10.104;2023-04-15T10:45:17;22.42;;;17.95;;
22270;SDS011;11304;53.520;10.104;2023-04-15T10:47:43;26.25;;;18.63;;
22270;SDS011;11304;53.520;10.104;2023-04-15T10:50:09;25.75;;;18.38;;
22270;SDS011;11304;53.520;10.104;2023-04-15T10:52:36;20.98;;;17.13;;
22270;SDS011;11304;53.520;10.104;2023-04-15T10:55:17;22.95;;;18.15;;
22270;SDS011;11304;53.520;10.104;2023-04-15T10:57:44;23.05;;;17.83;;
22270;SDS011;11304;53.520;10.104;2023-04-15T11:00:11;24.67;;;18.00;;
22270;SDS011;11304;53.520;10.104;2023-04-15T11:05:06;24.58;;;17.60;;
22270;SDS011;11304;53.520;10.104;2023-04-15T11:07:40;23.30;;;18.08;;
22270;SDS011;11304;53.520;10.104;2023-04-15T11:12:39;22.33;;;17.23;;
22270;SDS011;11304;53.520;10.104;2023-04-15T11:17:51;26.85;;;17.25;;
22270;SDS011;11304;53.520;10.104;2023-04-15T11:20:17;30.52;;;18.45;;
22270;SDS011;11304;53.520;10.104;2023-04-15T11:22:50;24.20;;;16.98;;
22270;SDS011;11304;53.520;10.104;2023-04-15T11:25:26;22.63;;;16.90;;
22270;SDS011;11304;53.520;10.104;2023-04-15T11:27:53;23.10;;;17.10;;
22270;SDS011;11304;53.520;10.104;2023-04-15T11:30:23;24.55;;;17.77;;
22270;SDS011;11304;53.520;10.104;2023-04-15T11:32:49;20.98;;;18.13;;
22270;SDS011;11304;53.520;10.104;2023-04-15T11:35:16;21.38;;;16.45;;
22270;SDS011;11304;53.520;10.104;2023-04-15T11:37:43;23.45;;;16.63;;
22270;SDS011;11304;53.520;10.104;2023-04-15T11:40:09;19.70;;;16.42;;
22270;SDS011;11304;53.520;10.104;2023-04-15T11:42:36;21.30;;;16.50;;
22270;SDS011;11304;53.520;10.104;2023-04-15T11:45:06;20.45;;;16.00;;
22270;SDS011;11304;53.520;10.104;2023-04-15T11:47:33;21.25;;;15.65;;
22270;SDS011;11304;53.520;10.104;2023-04-15T11:50:12;19.90;;;14.38;;
22270;SDS011;11304;53.520;10.104;2023-04-15T11:52:38;20.80;;;14.98;;
22270;SDS011;11304;53.520;10.104;2023-04-15T11:55:06;20.02;;;14.80;;
22270;SDS011;11304;53.520;10.104;2023-04-15T11:57:33;21.43;;;14.80;;
22270;SDS011;11304;53.520;10.104;2023-04-15T12:00:00;21.23;;;14.30;;
22270;SDS011;11304;53.520;10.104;2023-04-15T12:05:01;18.15;;;14.25;;
22270;SDS011;11304;53.520;10.104;2023-04-15T12:07:28;14.75;;;13.07;;
22270;SDS011;11304;53.520;10.104;2023-04-15T12:09:55;17.77;;;13.57;;
22270;SDS011;11304;53.520;10.104;2023-04-15T12:12:25;14.90;;;12.85;;
22270;SDS011;11304;53.520;10.104;2023-04-15T12:14:52;15.85;;;12.75;;
22270;SDS011;11304;53.520;10.104;2023-04-15T12:17:18;16.42;;;13.05;;
22270;SDS011;11304;53.520;10.104;2023-04-15T12:19:45;15.52;;;13.75;;
22270;SDS011;11304;53.520;10.104;2023-04-15T12:22:13;17.55;;;14.05;;
22270;SDS011;11304;53.520;10.104;2023-04-15T12:24:39;16.52;;;14.05;;
22270;SDS011;11304;53.520;10.104;2023-04-15T12:27:08;18.75;;;13.82;;
22270;SDS011;11304;53.520;10.104;2023-04-15T12:29:36;16.00;;;13.68;;
22270;SDS011;11304;53.520;10.104;2023-04-15T12:34:36;16.77;;;13.40;;
22270;SDS011;11304;53.520;10.104;2023-04-15T12:37:03;16.95;;;13.43;;
22270;SDS011;11304;53.520;10.104;2023-04-15T12:39:30;17.55;;;12.40;;
22270;SDS011;11304;53.520;10.104;2023-04-15T12:41:57;19.65;;;13.02;;
22270;SDS011;11304;53.520;10.104;2023-04-15T12:44:27;14.93;;;11.68;;
22270;SDS011;11304;53.520;10.104;2023-04-15T12:46:53;17.30;;;12.45;;
22270;SDS011;11304;53.520;10.104;2023-04-15T12:49:20;14.43;;;11.50;;
22270;SDS011;11304;53.520;10.104;2023-04-15T12:51:49;16.60;;;12.05;;
22270;SDS011;11304;53.520;10.104;2023-04-15T12:54:16;14.38;;;12.38;;
22270;SDS011;11304;53.520;10.104;2023-04-15T12:56:46;19.08;;;12.38;;
22270;SDS011;11304;53.520;10.104;2023-04-15T12:59:12;16.83;;;12.05;;
22270;SDS011;11304;53.520;10.104;2023-04-15T13:01:38;15.07;;;12.35;;
22270;SDS011;11304;53.520;10.104;2023-04-15T13:04:05;16.75;;;12.05;;
22270;SDS011;11304;53.520;10.104;2023-04-15T13:06:31;14.38;;;12.13;;
22270;SDS011;11304;53.520;10.104;2023-04-15T13:08:58;16.27;;;12.38;;
22270;SDS011;11304;53.520;10.104;2023-04-15T13:11:25;16.35;;;12.65;;
22270;SDS011;11304;53.520;10.104;2023-04-15T13:13:53;19.38;;;12.95;;
22270;SDS011;11304;53.520;10.104;2023-04-15T13:16:20;17.15;;;12.88;;
22270;SDS011;11304;53.520;10.104;2023-04-15T13:18:47;20.10;;;12.65;;
22270;SDS011;11304;53.520;10.104;2023-04-15T13:21:14;17.20;;;13.52;;
22270;SDS011;11304;53.520;10.104;2023-04-15T13:23:40;17.83;;;12.63;;
22270;SDS011;11304;53.520;10.104;2023-04-15T13:26:06;18.67;;;12.90;;
22270;SDS011;11304;53.520;10.104;2023-04-15T13:28:33;17.10;;;13.10;;
22270;SDS011;11304;53.520;10.104;2023-04-15T13:30:59;15.73;;;13.07;;
22270;SDS011;11304;53.520;10.104;2023-04-15T13:33:25;15.10;;;12.60;;
22270;SDS011;11304;53.520;10.104;2023-04-15T13:35:51;20.08;;;13.00;;
22270;SDS011;11304;53.520;10.104;2023-04-15T13:38:17;19.73;;;13.70;;
22270;SDS011;11304;53.520;10.104;2023-04-15T13:40:43;15.98;;;12.32;;
22270;SDS011;11304;53.520;10.104;2023-04-15T13:43:10;19.05;;;13.25;;
22270;SDS011;11304;53.520;10.104;2023-04-15T13:45:36;16.30;;;12.73;;
22270;SDS011;11304;53.520;10.104;2023-04-15T13:48:02;16.83;;;11.98;;
22270;SDS011;11304;53.520;10.104;2023-04-15T13:50:29;14.60;;;12.27;;
22270;SDS011;11304;53.520;10.104;2023-04-15T13:52:55;13.98;;;12.45;;
22270;SDS011;11304;53.520;10.104;2023-04-15T13:55:21;15.85;;;12.43;;
22270;SDS011;11304;53.520;10.104;2023-04-15T13:57:47;15.25;;;12.02;;
22270;SDS011;11304;53.520;10.104;2023-04-15T14:00:14;15.27;;;11.88;;
22270;SDS011;11304;53.520;10.104;2023-04-15T14:02:40;14.73;;;11.98;;
22270;SDS011;11304;53.520;10.104;2023-04-15T14:05:07;17.73;;;12.18;;
22270;SDS011;11304;53.520;10.104;2023-04-15T14:07:33;17.60;;;11.63;;
22270;SDS011;11304;53.520;10.104;2023-04-15T14:09:59;17.40;;;11.73;;
22270;SDS011;11304;53.520;10.104;2023-04-15T14:12:25;12.18;;;9.60;;
22270;SDS011;11304;53.520;10.104;2023-04-15T14:14:51;14.02;;;10.48;;
22270;SDS011;11304;53.520;10.104;2023-04-15T14:17:17;13.02;;;10.82;;
22270;SDS011;11304;53.520;10.104;2023-04-15T14:19:43;14.45;;;10.65;;
22270;SDS011;11304;53.520;10.104;2023-04-15T14:22:10;17.20;;;11.75;;